Terminal Aerodrome Forecast
Issued by NWS

Home | Current Version | Previous Version | Text Only | Print | Product List | Glossary On
Versions: 1 2 3 4 5 6 7 8 9 10 11 12 13 14 15 16 17 18 19 20 21 22 23
031
FTUS43 KLOT 202105 AAA
TAFDPA
TAF AMD
KDPA 202105Z 2021/2118 24008KT P6SM SCT250
     FM202300 21006KT P6SM OVC012
     FM210300 20003KT 3SM BR OVC007
     FM210900 16003KT 1SM -DZ BR OVC004
      TEMPO 2114/2118 1/2SM -DZ FG OVC003=

USA.gov is the U.S. government's official web portal to all federal, state and local government web resources and services.